Milk And Honey — WDF9265 — position and weather

sailwx.info

Track history (hours):
 
Tides and Currents Weather Stations Pressure Air Temp Water Temp Dewpoint Dewpoint Depression Visibility Wind Speed Wind Dir Waves Ship Positions

Milk And Honey

Owner: EKS Chartering Inc, Parsippany, NJ. More information available from US FCC via Universal Licensing System and Coast Guard Vessel Documentation Center.

Last reported at 2016-Apr-20 13:22 UTC. Time now 2016-May-03 12:34 UTC.
Position N 18°20' W 064°57'.
Warning: this ship's position is 12 days out of date.

Length 40 m.

Type: Pleasure craft. MMSI: 367503380.

Date/timePositionNaut miles runAvg speedWind from/ knotsBaromVisibWave heightAir tempDewpointWater temp
2016-Apr-20 13:22N 18°20' W 064°57'0 0.0
2016-Apr-19 21:05N 18°20' W 064°57'  
2016-Apr-16 16:30N 18°18' W 064°52'5 4.8
2016-Apr-16 15:33N 18°19' W 064°48'0 4.0
2016-Apr-16 15:30N 18°20' W 064°48'12 0.6
2016-Apr-15 20:05N 18°21' W 064°35'1 0.3
2016-Apr-15 17:27N 18°21' W 064°35'0 0.0
2016-Apr-15 10:27N 18°21' W 064°35'0 0.0
2016-Apr-15 09:33N 18°21' W 064°35'0 0.0
2016-Apr-15 06:32N 18°21' W 064°35'0 0.0
2016-Apr-14 22:29N 18°21' W 064°35'1 0.7
2016-Apr-14 21:12N 18°21' W 064°36'2 0.3
2016-Apr-14 13:30N 18°22' W 064°34'3 3.1
2016-Apr-14 12:33N 18°23' W 064°31'0 0.0
2016-Apr-14 11:30N 18°23' W 064°31'0 0.0
2016-Apr-14 10:33N 18°23' W 064°31'0 0.0
2016-Apr-14 09:33N 18°23' W 064°31'0 0.0
2016-Apr-14 08:33N 18°23' W 064°31'0 0.0
2016-Apr-14 07:33N 18°23' W 064°31'0 0.0
2016-Apr-14 06:33N 18°23' W 064°31'0 0.0
2016-Apr-14 05:31N 18°23' W 064°31'0 0.0
2016-Apr-14 04:33N 18°23' W 064°31'0 0.0
2016-Apr-14 03:33N 18°23' W 064°31'0 0.0
2016-Apr-14 02:33N 18°23' W 064°31'0 0.0
2016-Apr-14 01:33N 18°23' W 064°31'0 0.0
2016-Apr-14 00:33N 18°23' W 064°31'0 0.0
2016-Apr-13 23:33N 18°23' W 064°31'0 0.0
2016-Apr-13 22:33N 18°23' W 064°31'5 4.6
2016-Apr-13 21:32N 18°26' W 064°27'0 0.0
2016-Apr-13 20:33N 18°26' W 064°27'0 0.0
2016-Apr-13 19:33N 18°26' W 064°27'8 0.2
2016-Apr-12 07:33N 18°28' W 064°35'0 0.0
2016-Apr-12 06:31N 18°28' W 064°35'0 0.0
2016-Apr-12 05:33N 18°28' W 064°35'0 0.0
2016-Apr-12 04:32N 18°28' W 064°35'0 0.0
2016-Apr-12 03:21N 18°28' W 064°35'0 0.0
2016-Apr-12 02:33N 18°28' W 064°35'0 0.0
2016-Apr-12 01:33N 18°28' W 064°35'0 0.0
2016-Apr-12 00:33N 18°28' W 064°35'0 0.0
2016-Apr-11 20:20N 18°28' W 064°35'7 9.0
2016-Apr-11 19:33N 18°27' W 064°42'1 0.9
2016-Apr-11 18:33N 18°27' W 064°43'0 0.0
2016-Apr-11 17:34N 18°27' W 064°43'0 0.0
2016-Apr-11 16:33N 18°27' W 064°43'0 0.0
2016-Apr-11 15:33N 18°27' W 064°43'0 0.0
2016-Apr-11 14:33N 18°27' W 064°43'2 2.4
2016-Apr-11 13:33N 18°26' W 064°45'0 0.0
2016-Apr-11 12:33N 18°26' W 064°45'0 0.0
2016-Apr-11 11:33N 18°26' W 064°45'0 0.0
2016-Apr-11 10:33N 18°26' W 064°45'0 0.0
2016-Apr-11 09:33N 18°26' W 064°45'0 0.0
2016-Apr-11 08:33N 18°26' W 064°45'0 0.0
2016-Apr-11 07:33N 18°26' W 064°45'0 0.0
2016-Apr-11 03:33N 18°26' W 064°45'0 0.0
2016-Apr-11 02:33N 18°26' W 064°45'0 0.0
2016-Apr-11 01:33N 18°26' W 064°45'0 0.0
2016-Apr-11 00:33N 18°26' W 064°45'0 0.0
2016-Apr-10 23:33N 18°26' W 064°45'0 0.0
2016-Apr-10 22:33N 18°26' W 064°45'0 0.0
2016-Apr-10 21:33N 18°26' W 064°45'0 0.0
2016-Apr-10 20:33N 18°26' W 064°45'118.4
2016-Apr-10 20:31N 18°27' W 064°46'1 0.7
2016-Apr-10 19:33N 18°26' W 064°45'0 0.0
2016-Apr-10 18:33N 18°26' W 064°45'4 4.4
2016-Apr-10 17:33N 18°22' W 064°45'0 0.2
2016-Apr-10 16:33N 18°22' W 064°45'0 0.0
2016-Apr-10 15:33N 18°22' W 064°45'0 0.0
2016-Apr-10 14:33N 18°22' W 064°45'119.6
2016-Apr-10 14:31N 18°22' W 064°46'1 0.8
2016-Apr-10 13:33N 18°22' W 064°45'  
Track history (hours):
 
Tides and Currents Weather Stations Pressure Air Temp Water Temp Dewpoint Dewpoint Depression Visibility Wind Speed Wind Dir Waves Ship Positions

Milk And Honey

Owner: EKS Chartering Inc, Parsippany, NJ. More information available from US FCC via Universal Licensing System and Coast Guard Vessel Documentation Center.

Last reported at 2016-Apr-20 13:22 UTC. Time now 2016-May-03 12:34 UTC.
Position N 18°20' W 064°57'.
Warning: this ship's position is 12 days out of date.

Length 40 m.

Type: Pleasure craft. MMSI: 367503380.

Date/timePositionNaut miles runAvg speedWind from/ knotsBaromVisibWave heightAir tempDewpointWater temp
2016-Apr-20 13:22N 18°20' W 064°57'0 0.0
2016-Apr-19 21:05N 18°20' W 064°57'  
2016-Apr-16 16:30N 18°18' W 064°52'5 4.8
2016-Apr-16 15:33N 18°19' W 064°48'0 4.0
2016-Apr-16 15:30N 18°20' W 064°48'12 0.6
2016-Apr-15 20:05N 18°21' W 064°35'1 0.3
2016-Apr-15 17:27N 18°21' W 064°35'0 0.0
2016-Apr-15 10:27N 18°21' W 064°35'0 0.0
2016-Apr-15 09:33N 18°21' W 064°35'0 0.0
2016-Apr-15 06:32N 18°21' W 064°35'0 0.0
2016-Apr-14 22:29N 18°21' W 064°35'1 0.7
2016-Apr-14 21:12N 18°21' W 064°36'2 0.3
2016-Apr-14 13:30N 18°22' W 064°34'3 3.1
2016-Apr-14 12:33N 18°23' W 064°31'0 0.0
2016-Apr-14 11:30N 18°23' W 064°31'0 0.0
2016-Apr-14 10:33N 18°23' W 064°31'0 0.0
2016-Apr-14 09:33N 18°23' W 064°31'0 0.0
2016-Apr-14 08:33N 18°23' W 064°31'0 0.0
2016-Apr-14 07:33N 18°23' W 064°31'0 0.0
2016-Apr-14 06:33N 18°23' W 064°31'0 0.0
2016-Apr-14 05:31N 18°23' W 064°31'0 0.0
2016-Apr-14 04:33N 18°23' W 064°31'0 0.0
2016-Apr-14 03:33N 18°23' W 064°31'0 0.0
2016-Apr-14 02:33N 18°23' W 064°31'0 0.0
2016-Apr-14 01:33N 18°23' W 064°31'0 0.0
2016-Apr-14 00:33N 18°23' W 064°31'0 0.0
2016-Apr-13 23:33N 18°23' W 064°31'0 0.0
2016-Apr-13 22:33N 18°23' W 064°31'5 4.6
2016-Apr-13 21:32N 18°26' W 064°27'0 0.0
2016-Apr-13 20:33N 18°26' W 064°27'0 0.0
2016-Apr-13 19:33N 18°26' W 064°27'8 0.2
2016-Apr-12 07:33N 18°28' W 064°35'0 0.0
2016-Apr-12 06:31N 18°28' W 064°35'0 0.0
2016-Apr-12 05:33N 18°28' W 064°35'0 0.0
2016-Apr-12 04:32N 18°28' W 064°35'0 0.0
2016-Apr-12 03:21N 18°28' W 064°35'0 0.0
2016-Apr-12 02:33N 18°28' W 064°35'0 0.0
2016-Apr-12 01:33N 18°28' W 064°35'0 0.0
2016-Apr-12 00:33N 18°28' W 064°35'0 0.0
2016-Apr-11 20:20N 18°28' W 064°35'7 9.0
2016-Apr-11 19:33N 18°27' W 064°42'1 0.9
2016-Apr-11 18:33N 18°27' W 064°43'0 0.0
2016-Apr-11 17:34N 18°27' W 064°43'0 0.0
2016-Apr-11 16:33N 18°27' W 064°43'0 0.0
2016-Apr-11 15:33N 18°27' W 064°43'0 0.0
2016-Apr-11 14:33N 18°27' W 064°43'2 2.4
2016-Apr-11 13:33N 18°26' W 064°45'0 0.0
2016-Apr-11 12:33N 18°26' W 064°45'0 0.0
2016-Apr-11 11:33N 18°26' W 064°45'0 0.0
2016-Apr-11 10:33N 18°26' W 064°45'0 0.0
2016-Apr-11 09:33N 18°26' W 064°45'0 0.0
2016-Apr-11 08:33N 18°26' W 064°45'0 0.0
2016-Apr-11 07:33N 18°26' W 064°45'0 0.0
2016-Apr-11 03:33N 18°26' W 064°45'0 0.0
2016-Apr-11 02:33N 18°26' W 064°45'0 0.0
2016-Apr-11 01:33N 18°26' W 064°45'0 0.0
2016-Apr-11 00:33N 18°26' W 064°45'0 0.0
2016-Apr-10 23:33N 18°26' W 064°45'0 0.0
2016-Apr-10 22:33N 18°26' W 064°45'0 0.0
2016-Apr-10 21:33N 18°26' W 064°45'0 0.0
2016-Apr-10 20:33N 18°26' W 064°45'118.4
2016-Apr-10 20:31N 18°27' W 064°46'1 0.7
2016-Apr-10 19:33N 18°26' W 064°45'0 0.0
2016-Apr-10 18:33N 18°26' W 064°45'4 4.4
2016-Apr-10 17:33N 18°22' W 064°45'0 0.2
2016-Apr-10 16:33N 18°22' W 064°45'0 0.0
2016-Apr-10 15:33N 18°22' W 064°45'0 0.0
2016-Apr-10 14:33N 18°22' W 064°45'119.6
2016-Apr-10 14:31N 18°22' W 064°46'1 0.8
2016-Apr-10 13:33N 18°22' W 064°45'  

Dump ship's entire track history